Pagrindinis puslapis
METAR-TAF:

METAR-TAF

Oro uostai :

Vladivostokas, Rusija

platuma: 43-07N, ilguma: 131-56E, Aukštis: 184 m

Dabartinis oras

Ataskaita buvo paskelbta 43 minutes, ne 18:30 UTC
Vėjas 8 kt iš Šiaurės/Šiaurės Vakarų
Temperatūra -7°C
Drėgmė 67%
Slėgis 1026 hPa
Matomumas 10 km arba daugiau

METAR: UHWW 251830Z 33004MPS 9999 NSC M07/M12 Q1026 R25L/0///70 NOSIG RMK QFE768

Laikas: 05:13 (19:13 UTC)

Prognozė

Ataskaita buvo paskelbta 2 valandos ir 13 minutes, ne 17:00 UTC
Prognozė galioja nuo 25 metu 18 UTC su 26 metu 18 UTC
Vėjas 6 kt iš Šiaurės
Matomumas 10 km arba daugiau
Laikinai
nuo 25 metu 18 UTC su 25 metu 24 UTC
Matomumas: 4000 m
Su prošvaistėmis ne aukštis 1200 ft
migla
Laikinai
nuo 26 metu 01 UTC su 26 metu 12 UTC
Vėjas 14 kt iš Šiaurės su gūsio iki 23 kt
Su prošvaistėmis ne aukštis 3000 ft

TAF: UHWW 251700Z 2518/2618 36003MPS 9999 NSC TEMPO 2518/2524 4000 HZ BKN012 TEMPO 2601/2612 36007G12MPS BKN030

Orai ataskaitas ir orų prognozės (METAR, TAF).

turimą stotys yra geltonos ir raudonos taškus žemėlapyje.

Perkelti pele per norėdami pamatyti stoties vardą.

Tada spustelėkite, norėdami matyti oro stebėjimo ir prognozės.

Norėdami pakeisti žemėlapį: spustelėkite ant žalios mygtukų su juodo kryžiaus žemyn,; žalią mygtuką su brūkšneliu, jei norite nutolinti; arba žalių rodyklių gretimoms žemėlapius.


METAR-TAF: